createdAt,value
2023-03-31T00:01:42.911Z,92.69
2023-03-31T00:04:13.327Z,92.54
2023-03-31T00:06:42.214Z,92.89
2023-03-31T00:09:14.099Z,91.87
2023-03-31T00:11:40.864Z,91.79
2023-03-31T00:14:08.579Z,92.32
2023-03-31T00:16:36.662Z,92.11
2023-03-31T00:19:05.963Z,92.11
2023-03-31T00:21:36.953Z,91.70
2023-03-31T00:24:09.366Z,91.75
2023-03-31T00:26:36.422Z,92.14
2023-03-31T00:29:05.053Z,92.97
2023-03-31T00:31:32.234Z,93.72
2023-03-31T00:33:59.412Z,93.06
2023-03-31T00:36:27.426Z,92.97
2023-03-31T00:38:56.238Z,92.56
2023-03-31T00:41:23.091Z,92.78
2023-03-31T00:44:18.856Z,92.90
2023-03-31T00:46:54.659Z,93.36
2023-03-31T00:49:37.379Z,92.64
2023-03-31T00:52:09.343Z,92.71
2023-03-31T00:54:36.934Z,93.31
2023-03-31T00:57:06.693Z,94.13
2023-03-31T00:59:38.644Z,93.41
2023-03-31T01:02:05.480Z,92.87
2023-03-31T01:04:36.451Z,93.44
2023-03-31T01:07:42.754Z,93.44
2023-03-31T01:10:10.639Z,93.21
2023-03-31T01:12:40.182Z,93.02
2023-03-31T01:15:07.780Z,93.95
2023-03-31T01:17:35.336Z,94.28
2023-03-31T01:20:35.454Z,94.04
2023-03-31T01:23:14.681Z,93.13
2023-03-31T01:26:01.415Z,93.29
2023-03-31T01:29:02.935Z,93.22
2023-03-31T01:31:48.674Z,93.10
2023-03-31T01:34:33.471Z,93.03
2023-03-31T01:37:25.292Z,93.07
2023-03-31T01:40:13.065Z,94.17
2023-03-31T01:42:40.689Z,93.86
2023-03-31T01:45:44.644Z,93.95
2023-03-31T01:48:21.236Z,93.49
2023-03-31T01:51:01.471Z,94.35
2023-03-31T01:53:49.298Z,94.78
2023-03-31T01:56:30.573Z,94.47
2023-03-31T01:59:27.263Z,94.49
2023-03-31T02:02:13.826Z,93.80
2023-03-31T02:04:46.737Z,93.82
2023-03-31T02:07:19.546Z,92.93
2023-03-31T02:09:53.337Z,93.68
2023-03-31T02:12:24.595Z,92.97
2023-03-31T02:14:54.581Z,92.67
2023-03-31T02:17:33.014Z,92.20
2023-03-31T02:20:06.099Z,92.59
2023-03-31T02:22:36.169Z,92.65
2023-03-31T02:25:06.341Z,93.28
2023-03-31T02:27:37.492Z,93.08
2023-03-31T02:30:04.837Z,93.82
2023-03-31T02:32:36.765Z,93.11
2023-03-31T02:35:04.804Z,93.08
2023-03-31T02:37:31.378Z,92.99
2023-03-31T02:40:06.266Z,93.13
2023-03-31T02:42:32.780Z,93.08
2023-03-31T02:45:07.076Z,93.27
2023-03-31T02:47:34.780Z,93.28
2023-03-31T02:50:03.947Z,93.53
2023-03-31T02:53:13.887Z,93.54
2023-03-31T02:56:13.110Z,92.89
2023-03-31T02:59:01.496Z,94.02
2023-03-31T03:01:43.725Z,93.51
2023-03-31T03:04:59.525Z,94.35
2023-03-31T03:07:37.641Z,94.40
2023-03-31T03:10:24.291Z,94.04
2023-03-31T03:13:02.538Z,93.78
2023-03-31T03:16:07.446Z,93.41
2023-03-31T03:18:35.011Z,93.67
2023-03-31T03:21:02.652Z,94.04
2023-03-31T03:23:29.106Z,93.68
2023-03-31T03:25:55.687Z,93.87
2023-03-31T03:28:22.141Z,94.58
2023-03-31T03:30:48.652Z,95.02
2023-03-31T03:33:17.290Z,94.81
2023-03-31T03:35:43.999Z,94.74
2023-03-31T03:38:10.681Z,95.22
2023-03-31T03:40:37.139Z,95.68
2023-03-31T03:43:03.580Z,95.48
2023-03-31T03:45:30.573Z,95.30
2023-03-31T03:47:57.676Z,95.12
2023-03-31T03:50:24.330Z,95.50
2023-03-31T03:52:51.079Z,95.50
2023-03-31T03:55:17.816Z,95.34
2023-03-31T03:57:44.267Z,95.22
2023-03-31T04:00:12.305Z,95.77
2023-03-31T04:02:40.109Z,95.80
2023-03-31T04:05:07.101Z,95.59
2023-03-31T04:07:33.598Z,95.28
2023-03-31T04:10:00.208Z,95.68
2023-03-31T04:12:27.322Z,95.42
2023-03-31T04:14:53.765Z,95.71
2023-03-31T04:17:32.664Z,95.84
2023-03-31T04:20:08.877Z,94.68
2023-03-31T04:22:40.432Z,95.04
2023-03-31T04:25:14.838Z,95.71
2023-03-31T04:27:54.987Z,95.68
2023-03-31T04:30:23.361Z,95.19
2023-03-31T04:32:58.610Z,94.87
2023-03-31T04:35:28.002Z,94.84
2023-03-31T04:38:02.640Z,95.40
2023-03-31T04:40:29.093Z,95.29
2023-03-31T04:42:55.547Z,94.70
2023-03-31T04:45:22.105Z,94.72
2023-03-31T04:47:48.625Z,95.10
2023-03-31T04:50:17.030Z,94.92
2023-03-31T04:52:43.935Z,95.01
2023-03-31T04:55:10.843Z,95.38
2023-03-31T04:57:37.367Z,95.62
2023-03-31T05:00:08.140Z,95.77
2023-03-31T05:02:35.339Z,95.94
2023-03-31T05:05:04.579Z,96.00
2023-03-31T05:07:31.518Z,95.94
2023-03-31T05:09:58.253Z,96.72
2023-03-31T05:12:25.820Z,96.07
2023-03-31T05:14:52.352Z,96.26
2023-03-31T05:17:18.825Z,96.83
2023-03-31T05:19:45.394Z,96.13
2023-03-31T05:22:11.848Z,96.59
2023-03-31T05:24:38.287Z,97.00
2023-03-31T05:27:04.862Z,97.60
2023-03-31T05:29:31.362Z,96.87
2023-03-31T05:31:57.909Z,96.87
2023-03-31T05:34:24.450Z,96.93
2023-03-31T05:36:53.487Z,97.27
2023-03-31T05:39:20.134Z,97.75
2023-03-31T05:41:46.619Z,97.90
2023-03-31T05:44:13.170Z,97.18
2023-03-31T05:46:39.691Z,97.79
2023-03-31T05:49:06.978Z,97.08
2023-03-31T05:51:33.735Z,98.61
2023-03-31T05:54:00.783Z,99.98
2023-03-31T05:56:27.633Z,100.00
2023-03-31T05:58:54.217Z,100.00
2023-03-31T06:01:23.139Z,100.00
2023-03-31T06:03:50.478Z,100.00
2023-03-31T06:06:17.188Z,100.00
2023-03-31T06:08:45.806Z,100.00
2023-03-31T06:11:19.282Z,100.00
2023-03-31T06:13:46.204Z,100.00
2023-03-31T06:16:14.347Z,100.00
2023-03-31T06:18:41.604Z,100.00
2023-03-31T06:21:10.455Z,100.00
2023-03-31T06:23:36.886Z,100.00
2023-03-31T06:26:07.012Z,100.00
2023-03-31T06:28:34.412Z,100.00
2023-03-31T06:31:21.767Z,100.00
2023-03-31T06:33:48.862Z,100.00
2023-03-31T06:36:22.818Z,100.00
2023-03-31T06:38:55.054Z,100.00
2023-03-31T06:41:30.113Z,100.00
2023-03-31T06:43:56.601Z,100.00
2023-03-31T06:46:24.404Z,100.00
2023-03-31T06:48:50.863Z,100.00
2023-03-31T06:51:17.720Z,100.00
2023-03-31T06:53:44.170Z,100.00
2023-03-31T06:56:10.632Z,100.00
2023-03-31T06:58:37.034Z,100.00
2023-03-31T07:01:29.054Z,100.00
2023-03-31T07:03:55.456Z,100.00
2023-03-31T07:06:21.939Z,100.00
2023-03-31T07:08:48.442Z,100.00
2023-03-31T07:11:14.830Z,100.00
2023-03-31T07:13:41.354Z,100.00
2023-03-31T07:16:08.176Z,100.00
2023-03-31T07:18:36.493Z,100.00
2023-03-31T07:21:05.792Z,100.00
2023-03-31T07:23:35.609Z,100.00
2023-03-31T07:26:02.629Z,100.00
2023-03-31T07:28:30.115Z,100.00
2023-03-31T07:30:56.521Z,100.00
2023-03-31T07:33:23.236Z,100.00
2023-03-31T07:35:59.962Z,100.00
2023-03-31T07:38:35.474Z,100.00
2023-03-31T07:41:10.222Z,100.00
2023-03-31T07:43:36.794Z,100.00
2023-03-31T07:46:04.977Z,100.00
2023-03-31T07:48:31.708Z,100.00
2023-03-31T07:50:58.267Z,100.00
2023-03-31T07:53:31.020Z,100.00
2023-03-31T07:55:57.669Z,100.00
2023-03-31T07:58:24.385Z,100.00
2023-03-31T08:00:50.784Z,100.00
2023-03-31T08:03:17.259Z,100.00
2023-03-31T08:05:43.694Z,100.00
2023-03-31T08:08:10.104Z,100.00
2023-03-31T08:10:37.225Z,100.00
2023-03-31T08:13:03.682Z,100.00
2023-03-31T08:15:30.281Z,100.00
2023-03-31T08:17:56.741Z,100.00
2023-03-31T08:20:23.711Z,100.00
2023-03-31T08:22:50.231Z,100.00
2023-03-31T08:25:17.009Z,100.00
2023-03-31T08:27:43.489Z,100.00
2023-03-31T08:30:11.360Z,100.00
2023-03-31T08:32:37.988Z,100.00
2023-03-31T08:35:05.151Z,100.00
2023-03-31T08:37:32.385Z,100.00
2023-03-31T08:39:58.931Z,98.78
2023-03-31T08:42:36.766Z,99.25
2023-03-31T08:45:15.184Z,99.84
2023-03-31T08:47:43.799Z,98.12
2023-03-31T08:50:17.271Z,98.57
2023-03-31T08:53:04.026Z,97.58
2023-03-31T08:55:41.943Z,96.52
2023-03-31T08:58:18.669Z,96.21
2023-03-31T09:01:09.168Z,97.00
2023-03-31T09:03:47.098Z,96.75
2023-03-31T09:06:24.487Z,97.24
2023-03-31T09:08:53.477Z,97.11
2023-03-31T09:11:29.472Z,95.96
2023-03-31T09:14:13.671Z,96.43
2023-03-31T09:17:14.269Z,95.07
2023-03-31T09:20:08.673Z,94.47
2023-03-31T09:22:39.843Z,95.40
2023-03-31T09:25:23.597Z,94.38
2023-03-31T09:27:52.630Z,94.19
2023-03-31T09:30:25.932Z,95.53
2023-03-31T09:33:28.348Z,95.48
2023-03-31T09:35:54.928Z,95.89
2023-03-31T09:38:21.357Z,96.10
2023-03-31T09:40:47.966Z,97.06
2023-03-31T09:43:22.420Z,97.62
2023-03-31T09:46:05.320Z,98.91
2023-03-31T09:48:36.113Z,98.87
2023-03-31T09:51:06.606Z,100.00
2023-03-31T09:53:56.953Z,100.00
2023-03-31T09:56:41.825Z,100.00
2023-03-31T09:59:14.416Z,100.00
2023-03-31T10:01:42.088Z,100.00
2023-03-31T10:04:09.174Z,100.00
2023-03-31T10:06:42.079Z,100.00
2023-03-31T10:09:11.076Z,100.00
2023-03-31T10:11:37.979Z,100.00
2023-03-31T10:14:14.506Z,100.00
2023-03-31T10:16:54.171Z,100.00
2023-03-31T10:19:23.719Z,100.00
2023-03-31T10:22:15.529Z,100.00
2023-03-31T10:24:47.061Z,100.00
2023-03-31T10:27:24.486Z,100.00
2023-03-31T10:29:59.853Z,100.00
2023-03-31T10:32:29.199Z,100.00
2023-03-31T10:34:57.769Z,100.00
2023-03-31T10:37:28.060Z,100.00
2023-03-31T10:40:00.851Z,100.00
2023-03-31T10:42:28.904Z,100.00
2023-03-31T10:45:16.209Z,100.00
2023-03-31T10:47:50.140Z,100.00
2023-03-31T10:50:16.808Z,100.00
2023-03-31T10:52:48.492Z,100.00
2023-03-31T10:55:26.684Z,100.00
2023-03-31T10:58:16.406Z,100.00
2023-03-31T11:01:25.386Z,100.00
2023-03-31T11:03:58.313Z,100.00
2023-03-31T11:06:56.888Z,100.00
2023-03-31T11:09:46.327Z,100.00
2023-03-31T11:12:37.034Z,100.00
2023-03-31T11:15:21.176Z,100.00
2023-03-31T11:18:08.897Z,100.00
2023-03-31T11:21:06.543Z,100.00
2023-03-31T11:23:58.158Z,100.00
2023-03-31T11:26:44.842Z,99.90
2023-03-31T11:29:51.442Z,99.30
2023-03-31T11:32:48.331Z,97.52
2023-03-31T11:35:39.526Z,96.88
2023-03-31T11:38:32.040Z,97.39
2023-03-31T11:41:37.066Z,98.16
2023-03-31T11:44:12.813Z,98.71
2023-03-31T11:46:57.326Z,98.01
2023-03-31T11:49:30.298Z,98.38
2023-03-31T11:52:06.279Z,99.03
2023-03-31T11:54:55.511Z,97.74
2023-03-31T11:57:27.484Z,98.15
2023-03-31T11:59:58.977Z,97.78
2023-03-31T12:02:51.274Z,98.50
2023-03-31T12:05:19.222Z,97.93
2023-03-31T12:07:59.611Z,98.28
2023-03-31T12:10:42.984Z,97.89
2023-03-31T12:13:54.690Z,97.60
2023-03-31T12:16:38.770Z,97.31
2023-03-31T12:19:17.223Z,96.43
2023-03-31T12:21:49.778Z,97.62
2023-03-31T12:24:16.232Z,97.61
2023-03-31T12:26:57.750Z,97.55
2023-03-31T12:29:31.246Z,95.45
2023-03-31T12:32:02.823Z,96.64
2023-03-31T12:34:31.448Z,95.94
2023-03-31T12:37:30.425Z,96.18
2023-03-31T12:40:15.589Z,95.58
2023-03-31T12:43:04.579Z,94.40
2023-03-31T12:45:39.247Z,93.52
2023-03-31T12:48:30.627Z,93.57
2023-03-31T12:51:10.108Z,91.30
2023-03-31T12:54:02.284Z,91.63
2023-03-31T12:57:03.672Z,90.63
2023-03-31T12:59:47.030Z,89.41
2023-03-31T13:02:16.315Z,88.79
2023-03-31T13:04:43.937Z,88.76
2023-03-31T13:07:37.498Z,89.94
2023-03-31T13:10:19.809Z,88.36
2023-03-31T13:13:00.596Z,90.05
2023-03-31T13:15:30.286Z,90.55
2023-03-31T13:18:06.291Z,91.14
2023-03-31T13:20:38.321Z,91.61
2023-03-31T13:23:21.212Z,92.89
2023-03-31T13:25:50.513Z,94.18
2023-03-31T13:28:22.834Z,92.33
2023-03-31T13:30:57.929Z,92.54
2023-03-31T13:33:27.942Z,93.14
2023-03-31T13:36:07.712Z,94.17
2023-03-31T13:39:05.746Z,93.94
2023-03-31T13:41:56.597Z,93.68
2023-03-31T13:45:09.534Z,94.50
2023-03-31T13:47:57.535Z,94.48
2023-03-31T13:51:01.578Z,95.10
2023-03-31T13:53:40.514Z,95.55
2023-03-31T13:56:38.360Z,95.76
2023-03-31T13:59:23.690Z,95.63
2023-03-31T14:02:04.376Z,95.62
2023-03-31T14:04:43.141Z,94.96
2023-03-31T14:07:16.967Z,95.11
2023-03-31T14:09:49.767Z,94.86
2023-03-31T14:12:23.643Z,92.87
2023-03-31T14:14:53.688Z,93.21
2023-03-31T14:17:22.391Z,93.33
2023-03-31T14:20:08.372Z,89.60
2023-03-31T14:22:47.505Z,90.32
2023-03-31T14:25:40.897Z,90.18
2023-03-31T14:28:44.691Z,91.08
2023-03-31T14:31:27.015Z,90.33
2023-03-31T14:34:39.857Z,90.96
2023-03-31T14:37:11.479Z,90.68
2023-03-31T14:39:42.749Z,89.30
2023-03-31T14:42:27.041Z,90.97
2023-03-31T14:44:58.680Z,91.12
2023-03-31T14:47:30.605Z,91.10
2023-03-31T14:50:04.744Z,89.32
2023-03-31T14:52:33.468Z,91.53
2023-03-31T14:55:00.595Z,92.14
2023-03-31T14:57:34.801Z,93.70
2023-03-31T15:00:06.551Z,96.10
2023-03-31T15:02:36.092Z,97.25
2023-03-31T15:05:08.096Z,97.44
2023-03-31T15:07:36.121Z,98.16
2023-03-31T15:10:04.844Z,98.80
2023-03-31T15:12:31.613Z,99.57
2023-03-31T15:15:06.129Z,100.00
2023-03-31T15:17:39.133Z,100.00
2023-03-31T15:20:25.770Z,100.00
2023-03-31T15:22:52.500Z,100.00
2023-03-31T15:25:19.548Z,100.00
2023-03-31T15:27:53.916Z,100.00
2023-03-31T15:30:25.826Z,100.00
2023-03-31T15:32:58.788Z,100.00
2023-03-31T15:35:33.618Z,100.00
2023-03-31T15:38:02.629Z,100.00
2023-03-31T15:40:32.522Z,100.00
2023-03-31T15:43:33.656Z,100.00
2023-03-31T15:46:02.099Z,100.00
2023-03-31T15:48:37.037Z,100.00
2023-03-31T15:51:07.650Z,100.00
2023-03-31T15:53:48.737Z,100.00
2023-03-31T15:56:33.539Z,100.00
2023-03-31T15:59:04.692Z,100.00
2023-03-31T16:01:45.938Z,100.00
2023-03-31T16:04:14.621Z,100.00
2023-03-31T16:06:55.123Z,100.00
2023-03-31T16:09:26.006Z,100.00
2023-03-31T16:11:56.381Z,100.00
2023-03-31T16:14:33.461Z,100.00
2023-03-31T16:17:04.410Z,100.00
2023-03-31T16:19:39.616Z,100.00
2023-03-31T16:22:06.553Z,100.00
2023-03-31T16:24:35.301Z,100.00
2023-03-31T16:27:06.763Z,100.00
2023-03-31T16:29:36.890Z,100.00
2023-03-31T16:32:16.009Z,100.00
2023-03-31T16:34:53.437Z,100.00
2023-03-31T16:37:19.978Z,100.00
2023-03-31T16:39:46.392Z,100.00
2023-03-31T16:42:12.927Z,100.00
2023-03-31T16:44:40.842Z,100.00
2023-03-31T16:47:08.060Z,100.00
2023-03-31T16:49:34.761Z,100.00
2023-03-31T16:52:05.107Z,100.00
2023-03-31T16:54:31.967Z,100.00
2023-03-31T16:56:58.816Z,100.00
2023-03-31T16:59:26.007Z,100.00
2023-03-31T17:01:52.437Z,100.00
2023-03-31T17:04:19.770Z,100.00
2023-03-31T17:06:46.326Z,100.00
2023-03-31T17:09:12.737Z,100.00
2023-03-31T17:11:39.171Z,100.00
2023-03-31T17:14:05.885Z,100.00
2023-03-31T17:16:44.980Z,100.00
2023-03-31T17:19:14.124Z,100.00
2023-03-31T17:21:40.597Z,100.00
2023-03-31T17:24:07.550Z,100.00
2023-03-31T17:26:35.935Z,100.00
2023-03-31T17:29:04.966Z,100.00
2023-03-31T17:31:31.859Z,100.00
2023-03-31T17:33:58.635Z,100.00
2023-03-31T17:36:25.955Z,100.00
2023-03-31T17:38:52.725Z,100.00
2023-03-31T17:41:19.147Z,100.00
2023-03-31T17:43:47.182Z,100.00
2023-03-31T17:46:14.135Z,100.00
2023-03-31T17:48:41.785Z,100.00
2023-03-31T17:51:11.992Z,100.00
2023-03-31T17:53:39.668Z,100.00
2023-03-31T17:56:06.553Z,100.00
2023-03-31T17:58:33.599Z,100.00
2023-03-31T18:01:00.289Z,100.00
2023-03-31T18:03:29.811Z,100.00
2023-03-31T18:05:56.676Z,100.00
2023-03-31T18:08:23.692Z,100.00
2023-03-31T18:10:50.545Z,100.00
2023-03-31T18:13:17.419Z,100.00
2023-03-31T18:15:51.491Z,100.00
2023-03-31T18:18:18.883Z,100.00
2023-03-31T18:20:45.338Z,100.00
2023-03-31T18:23:12.393Z,100.00
2023-03-31T18:25:38.937Z,100.00
2023-03-31T18:28:05.426Z,100.00
2023-03-31T18:30:32.102Z,100.00
2023-03-31T18:32:59.292Z,100.00
2023-03-31T18:35:27.239Z,100.00
2023-03-31T18:37:53.753Z,100.00
2023-03-31T18:40:20.176Z,100.00
2023-03-31T18:42:47.546Z,100.00
2023-03-31T18:45:14.112Z,100.00
2023-03-31T18:47:40.615Z,100.00
2023-03-31T18:50:07.479Z,100.00
2023-03-31T18:52:36.100Z,100.00
2023-03-31T18:55:03.512Z,100.00
2023-03-31T18:57:30.105Z,100.00
2023-03-31T18:59:56.534Z,100.00
2023-03-31T19:02:23.049Z,100.00
2023-03-31T19:04:49.730Z,100.00
2023-03-31T19:07:16.289Z,100.00
2023-03-31T19:09:42.836Z,100.00
2023-03-31T19:12:11.698Z,100.00
2023-03-31T19:14:38.722Z,100.00
2023-03-31T19:17:05.902Z,100.00
2023-03-31T19:19:32.367Z,100.00
2023-03-31T19:21:58.922Z,100.00
2023-03-31T19:24:25.755Z,100.00
2023-03-31T19:26:52.320Z,100.00
2023-03-31T19:29:19.081Z,100.00
2023-03-31T19:31:47.518Z,100.00
2023-03-31T19:34:16.447Z,100.00
2023-03-31T19:36:43.318Z,100.00
2023-03-31T19:39:11.058Z,100.00
2023-03-31T19:41:37.514Z,100.00
2023-03-31T19:44:04.869Z,100.00
2023-03-31T19:46:31.660Z,100.00
2023-03-31T19:48:58.134Z,100.00
2023-03-31T19:51:32.160Z,99.40
2023-03-31T19:53:58.857Z,99.33
2023-03-31T19:56:27.085Z,98.43
2023-03-31T19:58:53.591Z,98.59
2023-03-31T20:01:24.008Z,98.93
2023-03-31T20:03:53.019Z,98.34
2023-03-31T20:06:25.802Z,97.60
2023-03-31T20:08:57.496Z,97.61
2023-03-31T20:11:26.116Z,98.52
2023-03-31T20:13:53.037Z,98.37
2023-03-31T20:16:22.408Z,98.67
2023-03-31T20:19:11.276Z,99.48
2023-03-31T20:21:38.902Z,99.67
2023-03-31T20:24:06.390Z,99.77
2023-03-31T20:26:34.254Z,100.00
2023-03-31T20:29:03.607Z,100.00
2023-03-31T20:31:33.608Z,100.00
2023-03-31T20:34:00.359Z,100.00
2023-03-31T20:36:32.112Z,100.00
2023-03-31T20:38:59.902Z,100.00
2023-03-31T20:41:28.600Z,100.00
2023-03-31T20:43:55.927Z,100.00
2023-03-31T20:46:23.095Z,100.00
2023-03-31T20:48:58.021Z,100.00
2023-03-31T20:51:30.313Z,100.00
2023-03-31T20:53:58.730Z,100.00
2023-03-31T20:56:34.166Z,100.00
2023-03-31T20:59:01.038Z,100.00
2023-03-31T21:01:31.014Z,100.00
2023-03-31T21:04:02.108Z,100.00
2023-03-31T21:06:32.539Z,100.00
2023-03-31T21:08:59.982Z,100.00
2023-03-31T21:11:27.277Z,100.00
2023-03-31T21:13:54.004Z,100.00
2023-03-31T21:16:21.484Z,100.00
2023-03-31T21:18:48.313Z,100.00
2023-03-31T21:21:19.321Z,100.00
2023-03-31T21:23:46.594Z,100.00
2023-03-31T21:26:15.688Z,100.00
2023-03-31T21:28:43.315Z,100.00
2023-03-31T21:31:11.015Z,100.00
2023-03-31T21:33:39.044Z,100.00
2023-03-31T21:36:07.953Z,100.00
2023-03-31T21:38:36.225Z,100.00
2023-03-31T21:41:10.858Z,100.00
2023-03-31T21:43:37.762Z,100.00
2023-03-31T21:46:04.573Z,100.00
2023-03-31T21:48:31.937Z,100.00
2023-03-31T21:51:00.831Z,100.00
2023-03-31T21:53:30.117Z,100.00
2023-03-31T21:55:57.660Z,100.00
2023-03-31T21:58:28.384Z,100.00
2023-03-31T22:00:56.465Z,100.00
2023-03-31T22:03:27.520Z,100.00
2023-03-31T22:05:56.604Z,100.00
2023-03-31T22:08:24.318Z,100.00
2023-03-31T22:10:52.204Z,100.00
2023-03-31T22:13:19.897Z,100.00
2023-03-31T22:15:46.916Z,100.00
2023-03-31T22:18:13.560Z,100.00
2023-03-31T22:20:40.955Z,100.00
2023-03-31T22:23:07.487Z,100.00
2023-03-31T22:25:34.553Z,100.00
2023-03-31T22:28:03.956Z,100.00
2023-03-31T22:30:31.894Z,100.00
2023-03-31T22:32:58.538Z,100.00
2023-03-31T22:35:26.033Z,100.00
2023-03-31T22:37:52.733Z,100.00
2023-03-31T22:40:19.243Z,100.00
2023-03-31T22:42:45.658Z,100.00
2023-03-31T22:45:12.391Z,100.00
2023-03-31T22:47:39.037Z,100.00
2023-03-31T22:50:06.219Z,100.00
2023-03-31T22:52:32.777Z,100.00
2023-03-31T22:54:59.516Z,100.00
2023-03-31T22:57:26.423Z,100.00
2023-03-31T22:59:52.955Z,100.00
2023-03-31T23:02:19.539Z,100.00
2023-03-31T23:04:46.056Z,100.00
2023-03-31T23:07:12.538Z,100.00
2023-03-31T23:09:39.160Z,100.00
2023-03-31T23:12:06.141Z,100.00
2023-03-31T23:14:32.794Z,100.00
2023-03-31T23:16:59.361Z,100.00
2023-03-31T23:19:26.252Z,100.00
2023-03-31T23:21:52.772Z,100.00
2023-03-31T23:24:21.142Z,100.00
2023-03-31T23:26:47.544Z,100.00
2023-03-31T23:29:13.985Z,100.00
2023-03-31T23:31:40.525Z,100.00
2023-03-31T23:34:07.215Z,100.00
2023-03-31T23:36:33.816Z,100.00
2023-03-31T23:39:00.288Z,100.00
2023-03-31T23:41:27.904Z,100.00
2023-03-31T23:43:55.722Z,100.00
2023-03-31T23:46:22.227Z,100.00
2023-03-31T23:48:49.114Z,100.00
2023-03-31T23:51:15.841Z,100.00
2023-03-31T23:53:42.305Z,100.00
2023-03-31T23:56:11.807Z,100.00
2023-03-31T23:58:39.105Z,100.00
